Time;durP1;ratioP1;P1;durP2;ratioP2;P2;SDS_P1;SDS_P2;PMS_P1;PMS_P2;Temp;Humidity;BMP_temperature;BMP_pressure;BME280_temperature;BME280_humidity;BME280_pressure;Samples;Min_cycle;Max_cycle;Signal;HPM_P1;HPM_P2
2022/03/17 00:00:29;;;;;;;4.93;1.52;;;5.80;99.90;;;;;;5065856;28;20051;-74
2022/03/17 00:02:55;;;;;;;6.50;1.48;;;5.80;99.90;;;;;;5065288;28;20043;-74
2022/03/17 00:05:21;;;;;;;5.20;0.90;;;5.60;99.90;;;;;;5065711;28;20032;-72
2022/03/17 00:07:46;;;;;;;5.68;1.42;;;5.50;99.90;;;;;;5064620;28;20194;-73
2022/03/17 00:10:14;;;;;;;6.55;1.23;;;5.40;99.90;;;;;;5064608;28;20032;-72
2022/03/17 00:12:42;;;;;;;9.88;1.70;;;5.30;99.90;;;;;;5037148;28;20025;-73
2022/03/17 00:15:08;;;;;;;7.60;1.63;;;5.30;99.90;;;;;;5060781;28;20018;-72
2022/03/17 00:17:34;;;;;;;9.93;2.42;;;5.20;99.90;;;;;;5044412;28;20099;-73
2022/03/17 00:20:00;;;;;;;7.32;1.80;;;5.10;99.90;;;;;;5059196;28;20017;-71
2022/03/17 00:22:26;;;;;;;4.38;1.38;;;5.10;99.90;;;;;;5061041;28;20028;-71
2022/03/17 00:24:51;;;;;;;11.10;2.25;;;5.10;99.90;;;;;;5045054;28;20030;-74
2022/03/17 00:27:17;;;;;;;8.88;1.73;;;5.00;99.90;;;;;;5045523;28;20018;-71
2022/03/17 00:29:43;;;;;;;7.70;1.95;;;5.00;99.90;;;;;;5045188;28;20021;-71
2022/03/17 00:32:08;;;;;;;8.60;1.92;;;4.90;99.90;;;;;;5060528;28;20021;-72
2022/03/17 00:35:35;;;;;;;13.77;2.65;;;4.90;99.90;;;;;;5044788;28;20021;-71
2022/03/17 00:37:23;;;;;;;6.57;1.50;;;4.90;99.90;;;;;;5050671;28;20019;-74
2022/03/17 00:39:49;;;;;;;11.40;2.20;;;4.90;99.90;;;;;;5047735;28;20024;-71
2022/03/17 00:42:15;;;;;;;8.70;1.90;;;4.90;99.90;;;;;;5064020;28;20017;-72
2022/03/17 00:44:41;;;;;;;7.78;1.80;;;5.00;99.90;;;;;;5064497;28;20044;-72
2022/03/17 00:47:07;;;;;;;9.00;1.38;;;5.00;99.90;;;;;;5063826;28;20189;-71
2022/03/17 00:49:33;;;;;;;7.25;1.20;;;5.00;99.90;;;;;;5064539;28;20071;-73
2022/03/17 00:51:59;;;;;;;5.28;1.63;;;5.10;99.90;;;;;;5063623;28;20021;-73
2022/03/17 00:54:26;;;;;;;8.98;2.10;;;5.20;99.90;;;;;;5046942;28;20036;-75
2022/03/17 00:56:52;;;;;;;12.18;1.70;;;5.20;99.90;;;;;;5064822;28;20028;-74
2022/03/17 00:59:18;;;;;;;7.03;1.75;;;5.30;99.90;;;;;;5063591;28;20407;-74
2022/03/17 01:01:44;;;;;;;13.68;2.40;;;5.30;99.90;;;;;;5064694;28;20017;-72
2022/03/17 01:04:10;;;;;;;13.07;2.10;;;5.30;99.90;;;;;;5064063;28;20029;-71
2022/03/17 01:06:35;;;;;;;9.90;1.88;;;5.40;99.90;;;;;;5046856;28;20251;-72
2022/03/17 01:09:02;;;;;;;13.25;2.67;;;5.30;99.90;;;;;;5063397;28;20044;-73
2022/03/17 01:11:27;;;;;;;14.63;2.25;;;5.40;99.90;;;;;;5062739;28;20100;-73
2022/03/17 01:13:53;;;;;;;7.25;1.60;;;5.30;99.90;;;;;;5043176;28;20037;-72
2022/03/17 01:16:19;;;;;;;13.25;2.15;;;5.30;99.90;;;;;;5059859;28;20067;-71
2022/03/17 01:18:44;;;;;;;13.27;2.25;;;5.30;99.90;;;;;;5059690;28;20089;-72
2022/03/17 01:21:10;;;;;;;8.68;2.10;;;5.20;99.90;;;;;;5041557;28;20031;-71
2022/03/17 01:23:36;;;;;;;11.02;2.42;;;5.10;99.90;;;;;;5043154;28;20204;-72
2022/03/17 01:26:02;;;;;;;9.48;2.60;;;5.10;99.90;;;;;;5043008;28;20052;-73
2022/03/17 01:28:28;;;;;;;9.07;2.03;;;5.10;99.90;;;;;;5042775;28;20057;-73
2022/03/17 01:30:54;;;;;;;8.80;1.80;;;5.00;99.90;;;;;;5059502;28;20032;-73
2022/03/17 01:33:20;;;;;;;9.70;2.13;;;5.00;99.90;;;;;;5042539;28;20240;-73
2022/03/17 01:35:45;;;;;;;9.30;1.83;;;4.90;99.90;;;;;;5043604;28;20021;-73
2022/03/17 01:38:11;;;;;;;9.65;2.47;;;4.90;99.90;;;;;;5057281;28;20231;-73
2022/03/17 01:40:37;;;;;;;11.02;2.28;;;4.90;99.90;;;;;;5063680;28;20327;-72
2022/03/17 01:43:03;;;;;;;10.43;1.90;;;4.90;99.90;;;;;;5063352;28;20025;-74
2022/03/17 01:45:29;;;;;;;4.45;1.67;;;4.90;99.90;;;;;;5063543;28;20346;-73
2022/03/17 01:47:55;;;;;;;8.75;1.88;;;4.90;99.90;;;;;;5062852;28;20048;-72
2022/03/17 01:50:21;;;;;;;7.78;1.70;;;4.90;99.90;;;;;;5062671;28;20095;-75
2022/03/17 01:52:47;;;;;;;11.68;2.30;;;4.90;99.90;;;;;;5062031;28;20331;-73
2022/03/17 01:55:17;;;;;;;7.65;2.20;;;4.90;99.90;;;;;;5062482;28;20336;-72
2022/03/17 01:57:43;;;;;;;10.32;2.30;;;4.90;99.90;;;;;;5063472;28;20020;-72
2022/03/17 02:00:13;;;;;;;11.70;1.98;;;4.80;99.90;;;;;;5063649;28;20087;-72
2022/03/17 02:02:40;;;;;;;11.93;1.90;;;4.80;99.90;;;;;;5062282;28;20025;-74
2022/03/17 02:05:06;;;;;;;9.55;2.40;;;4.80;99.90;;;;;;5061981;28;20036;-72
2022/03/17 02:07:32;;;;;;;9.25;1.85;;;4.80;99.90;;;;;;5062336;28;20211;-74
2022/03/17 02:09:59;;;;;;;14.35;2.58;;;4.80;99.90;;;;;;5062499;28;20086;-73
2022/03/17 02:15:10;;;;;;;9.57;2.42;;;4.70;99.90;;;;;;5042328;28;20024;-72
2022/03/17 02:17:40;;;;;;;10.75;2.25;;;4.70;99.90;;;;;;5042089;28;20036;-72
2022/03/17 02:20:09;;;;;;;11.52;3.10;;;4.70;99.90;;;;;;5043336;28;20037;-73
2022/03/17 02:22:46;;;;;;;16.17;2.30;;;4.60;99.90;;;;;;5057020;28;20088;-72
2022/03/17 02:28:02;;;;;;;14.52;2.47;;;4.60;99.90;;;;;;5042145;28;20312;-74
2022/03/17 02:30:28;;;;;;;9.20;2.50;;;4.60;99.90;;;;;;5041669;28;20017;-74
2022/03/17 02:33:01;;;;;;;9.82;2.42;;;4.60;99.90;;;;;;5042157;28;20336;-74
2022/03/17 02:35:28;;;;;;;19.58;2.97;;;4.60;99.90;;;;;;5058603;28;20024;-72
2022/03/17 02:37:55;;;;;;;12.50;2.60;;;4.50;99.90;;;;;;5053939;28;20013;-71
2022/03/17 02:40:21;;;;;;;14.52;2.53;;;4.50;99.90;;;;;;5063007;28;20304;-72
2022/03/17 02:42:48;;;;;;;11.30;2.30;;;4.50;99.90;;;;;;5062572;28;20278;-74
2022/03/17 02:45:14;;;;;;;6.68;2.50;;;4.50;99.90;;;;;;5062572;28;20262;-72
2022/03/17 02:47:41;;;;;;;10.43;2.47;;;4.50;99.90;;;;;;5062945;28;20036;-73
2022/03/17 02:50:10;;;;;;;14.23;2.55;;;4.50;99.90;;;;;;5045061;28;20179;-72
2022/03/17 02:52:36;;;;;;;13.75;2.97;;;4.50;99.90;;;;;;5061651;28;20035;-71
2022/03/17 02:55:02;;;;;;;10.95;3.03;;;4.40;99.90;;;;;;5062851;28;20016;-72
2022/03/17 02:57:28;;;;;;;9.48;2.28;;;4.40;99.90;;;;;;5062717;28;20017;-71
2022/03/17 02:59:54;;;;;;;10.10;2.83;;;4.40;99.90;;;;;;5061778;28;20168;-72
2022/03/17 03:02:21;;;;;;;10.98;2.42;;;4.40;99.90;;;;;;5061786;28;20043;-73
2022/03/17 03:04:47;;;;;;;12.52;2.90;;;4.40;99.90;;;;;;5061614;28;20375;-73
2022/03/17 03:07:13;;;;;;;12.07;2.88;;;4.50;99.90;;;;;;5066682;28;20067;-72
2022/03/17 03:09:39;;;;;;;17.17;2.92;;;4.50;99.90;;;;;;5066856;28;20075;-73
2022/03/17 03:12:05;;;;;;;7.63;2.38;;;4.50;99.90;;;;;;5060823;28;20025;-73
2022/03/17 03:14:31;;;;;;;15.15;2.97;;;4.50;99.90;;;;;;5046675;28;20044;-73
2022/03/17 03:16:58;;;;;;;9.05;2.55;;;4.40;99.90;;;;;;5045353;28;20328;-71
2022/03/17 03:19:23;;;;;;;19.30;2.92;;;4.50;99.90;;;;;;5062242;28;20021;-70
2022/03/17 03:21:49;;;;;;;11.55;2.65;;;4.40;99.90;;;;;;5060803;28;20070;-71
2022/03/17 03:24:16;;;;;;;12.73;3.50;;;4.30;99.90;;;;;;5045587;28;20025;-73
2022/03/17 03:26:43;;;;;;;10.73;2.80;;;4.30;99.90;;;;;;5046265;28;20025;-72
2022/03/17 03:29:26;;;;;;;15.65;3.20;;;4.20;99.90;;;;;;5062000;28;20049;-71
2022/03/17 03:31:58;;;;;;;16.25;3.20;;;4.10;99.90;;;;;;5045278;28;20018;-72
2022/03/17 03:34:24;;;;;;;12.02;3.30;;;4.00;99.90;;;;;;5044813;28;20277;-72
2022/03/17 03:39:36;;;;;;;19.80;3.38;;;3.90;99.90;;;;;;5065430;28;20021;-73
2022/03/17 03:42:03;;;;;;;11.75;3.15;;;4.00;99.90;;;;;;5048272;28;20021;-71
2022/03/17 03:44:29;;;;;;;11.18;2.97;;;3.90;99.90;;;;;;5065036;28;20028;-73
2022/03/17 03:46:55;;;;;;;14.73;4.15;;;4.00;99.90;;;;;;5064738;28;20021;-74
2022/03/17 03:49:21;;;;;;;15.75;2.92;;;4.00;99.90;;;;;;5064953;28;20053;-73
2022/03/17 03:51:47;;;;;;;9.65;2.67;;;4.00;99.90;;;;;;5065879;28;20024;-71
2022/03/17 03:54:13;;;;;;;17.33;3.17;;;4.10;99.90;;;;;;5064805;28;20056;-71
2022/03/17 03:56:41;;;;;;;12.40;2.40;;;4.10;99.90;;;;;;5064715;28;20019;-74
2022/03/17 03:59:08;;;;;;;10.18;2.75;;;4.10;99.90;;;;;;5064607;28;20025;-72
2022/03/17 04:01:35;;;;;;;11.68;3.08;;;4.10;99.90;;;;;;5064641;28;20017;-73
2022/03/17 04:04:01;;;;;;;14.55;3.28;;;4.00;99.90;;;;;;5065534;28;20025;-70
2022/03/17 04:06:28;;;;;;;10.27;2.75;;;3.80;99.90;;;;;;5064778;28;20048;-71
2022/03/17 04:08:54;;;;;;;9.20;2.67;;;3.70;99.90;;;;;;5064526;28;20021;-71
2022/03/17 04:11:19;;;;;;;11.32;2.60;;;3.50;99.90;;;;;;5065129;28;20350;-71
2022/03/17 04:13:45;;;;;;;13.10;2.53;;;3.40;99.90;;;;;;5044841;28;20029;-72
2022/03/17 04:16:11;;;;;;;7.63;2.80;;;3.30;99.90;;;;;;5061107;28;20316;-71
2022/03/17 04:18:37;;;;;;;17.95;2.78;;;3.20;99.90;;;;;;5060770;28;20018;-72
2022/03/17 04:21:03;;;;;;;10.02;2.80;;;3.20;99.90;;;;;;5044353;28;20022;-74
2022/03/17 04:23:28;;;;;;;12.98;2.60;;;3.20;99.90;;;;;;5044035;28;20020;-71
2022/03/17 04:25:54;;;;;;;18.25;3.63;;;3.20;99.90;;;;;;5061096;28;20021;-71
2022/03/17 04:28:19;;;;;;;11.10;2.75;;;3.20;99.90;;;;;;5045112;28;20021;-71
2022/03/17 04:30:45;;;;;;;16.70;3.03;;;3.20;99.90;;;;;;5045322;28;20071;-74
2022/03/17 04:33:11;;;;;;;10.38;2.50;;;3.10;99.90;;;;;;5043524;28;20255;-73
2022/03/17 04:35:37;;;;;;;12.75;2.95;;;3.10;99.90;;;;;;5045226;28;20021;-72
2022/03/17 04:38:03;;;;;;;8.65;2.60;;;3.10;99.90;;;;;;5072549;28;20035;-74
2022/03/17 04:40:28;;;;;;;10.63;2.75;;;3.00;99.90;;;;;;5065110;28;20035;-71
2022/03/17 04:42:54;;;;;;;10.20;2.90;;;3.10;99.90;;;;;;5064770;28;20025;-74
2022/03/17 04:45:20;;;;;;;12.90;2.50;;;3.00;99.90;;;;;;5063727;28;20035;-73
2022/03/17 04:47:46;;;;;;;11.38;2.40;;;3.00;99.90;;;;;;5063606;28;20025;-73
2022/03/17 04:50:11;;;;;;;8.23;2.30;;;2.90;99.90;;;;;;5063743;28;20314;-72
2022/03/17 04:55:22;;;;;;;8.10;2.60;;;2.90;99.90;;;;;;5063847;28;20169;-72
2022/03/17 04:57:48;;;;;;;10.10;3.03;;;2.90;99.90;;;;;;5080236;28;20024;-72
2022/03/17 05:00:14;;;;;;;10.95;2.95;;;2.80;99.90;;;;;;5063626;28;20021;-71
2022/03/17 05:02:40;;;;;;;9.52;2.42;;;2.70;99.90;;;;;;5064583;28;20025;-74
2022/03/17 05:05:07;;;;;;;12.05;2.83;;;2.60;99.90;;;;;;5063243;28;20032;-72
2022/03/17 05:07:34;;;;;;;6.80;2.60;;;2.60;99.90;;;;;;5064642;28;20033;-72
2022/03/17 05:10:00;;;;;;;11.18;2.95;;;2.60;99.90;;;;;;5046834;28;20021;-72
2022/03/17 05:12:25;;;;;;;13.15;2.83;;;2.60;99.90;;;;;;5037874;28;20040;-73
2022/03/17 05:14:51;;;;;;;12.95;3.00;;;2.60;99.90;;;;;;5043176;28;20087;-71
2022/03/17 05:17:17;;;;;;;12.23;2.55;;;2.50;99.90;;;;;;5044542;28;20033;-74
2022/03/17 05:19:42;;;;;;;6.20;3.22;;;2.60;99.90;;;;;;5059654;28;20036;-73
2022/03/17 05:22:08;;;;;;;11.07;2.53;;;2.60;99.90;;;;;;5044388;28;20017;-71
2022/03/17 05:24:33;;;;;;;9.65;2.83;;;2.60;99.90;;;;;;5041359;28;20021;-72
2022/03/17 05:26:59;;;;;;;9.05;2.88;;;2.50;99.90;;;;;;5059301;28;20064;-73
2022/03/17 05:29:25;;;;;;;13.00;2.75;;;2.60;99.90;;;;;;5043295;28;20017;-71
2022/03/17 05:31:50;;;;;;;10.73;3.10;;;2.60;99.90;;;;;;5059238;28;20308;-71
2022/03/17 05:34:16;;;;;;;6.82;2.85;;;2.70;99.90;;;;;;5042503;28;20033;-73
2022/03/17 05:36:42;;;;;;;8.80;2.80;;;2.70;99.90;;;;;;5044880;28;20217;-72
2022/03/17 05:39:07;;;;;;;11.38;3.15;;;2.60;99.90;;;;;;5062817;28;20020;-73
2022/03/17 05:41:33;;;;;;;7.88;2.88;;;2.70;99.90;;;;;;5063811;28;20316;-71
2022/03/17 05:43:59;;;;;;;10.68;3.20;;;2.60;99.90;;;;;;5046040;28;20308;-74
2022/03/17 05:46:25;;;;;;;15.35;3.33;;;2.60;99.90;;;;;;5063875;28;20052;-71
2022/03/17 05:48:53;;;;;;;12.15;3.55;;;2.50;99.90;;;;;;5063456;28;20087;-74
2022/03/17 05:51:18;;;;;;;10.30;3.05;;;2.60;99.90;;;;;;5063742;28;20020;-73
2022/03/17 05:53:44;;;;;;;10.27;3.20;;;2.50;99.90;;;;;;5045963;28;20035;-72
2022/03/17 05:56:10;;;;;;;10.65;2.92;;;2.50;99.90;;;;;;5062525;28;20021;-71
2022/03/17 05:58:35;;;;;;;11.40;4.40;;;2.50;99.90;;;;;;5045782;28;20033;-72
2022/03/17 06:01:01;;;;;;;14.48;3.85;;;2.50;99.90;;;;;;5062024;28;20039;-72
2022/03/17 06:03:26;;;;;;;11.43;3.72;;;2.50;99.90;;;;;;5063334;28;20071;-71
2022/03/17 06:05:52;;;;;;;14.23;3.83;;;2.60;99.90;;;;;;5062628;28;20048;-73
2022/03/17 06:08:18;;;;;;;12.82;3.80;;;2.60;99.90;;;;;;5062491;28;20060;-73
2022/03/17 06:10:43;;;;;;;14.90;4.07;;;2.60;99.90;;;;;;5062177;28;20092;-72
2022/03/17 06:13:09;;;;;;;8.10;3.30;;;2.60;99.90;;;;;;5048442;28;20029;-73
2022/03/17 06:15:35;;;;;;;10.45;3.25;;;2.50;99.90;;;;;;5042144;28;20082;-72
2022/03/17 06:18:03;;;;;;;16.25;3.78;;;2.60;99.90;;;;;;5043520;28;20029;-74
2022/03/17 06:20:31;;;;;;;17.40;3.35;;;2.60;99.90;;;;;;5058599;28;20036;-73
2022/03/17 06:22:59;;;;;;;12.07;3.22;;;2.60;99.90;;;;;;5058845;28;20052;-71
2022/03/17 06:25:26;;;;;;;9.70;3.50;;;2.70;99.90;;;;;;5041568;28;20312;-74
2022/03/17 06:27:52;;;;;;;11.10;3.55;;;2.70;99.90;;;;;;5042259;28;20143;-73
2022/03/17 06:30:23;;;;;;;12.30;3.60;;;2.70;99.90;;;;;;5042978;28;20021;-74
2022/03/17 06:32:50;;;;;;;14.82;3.35;;;2.70;99.90;;;;;;5058045;28;20029;-72
2022/03/17 06:35:18;;;;;;;10.02;3.00;;;2.70;99.90;;;;;;5058388;28;20024;-73
2022/03/17 06:37:46;;;;;;;15.00;3.50;;;2.70;99.90;;;;;;5061987;28;20033;-73
2022/03/17 06:40:13;;;;;;;11.52;3.53;;;2.70;99.90;;;;;;5045901;28;20017;-74
2022/03/17 06:42:38;;;;;;;13.98;3.83;;;2.70;99.90;;;;;;5065871;28;20024;-74
2022/03/17 06:45:05;;;;;;;15.00;4.40;;;2.70;99.90;;;;;;5067193;28;20086;-73
2022/03/17 06:47:30;;;;;;;12.23;4.20;;;2.70;99.90;;;;;;5067203;28;20303;-73
2022/03/17 06:49:56;;;;;;;12.93;4.13;;;2.80;99.90;;;;;;5066932;28;20091;-72
2022/03/17 06:52:22;;;;;;;17.92;4.40;;;2.90;99.90;;;;;;5066640;28;20095;-73
2022/03/17 06:54:49;;;;;;;12.32;4.45;;;2.90;99.90;;;;;;5048669;28;20106;-72
2022/03/17 06:57:19;;;;;;;13.57;4.45;;;2.90;99.90;;;;;;5065488;28;20021;-72
2022/03/17 06:59:45;;;;;;;15.85;4.47;;;2.90;99.90;;;;;;5049205;28;20032;-73
2022/03/17 07:02:11;;;;;;;13.43;4.28;;;3.00;99.90;;;;;;5032037;28;20044;-74
2022/03/17 07:04:36;;;;;;;17.05;4.95;;;3.00;99.90;;;;;;5048677;28;20020;-72
2022/03/17 07:07:03;;;;;;;21.05;5.53;;;3.10;99.90;;;;;;5066537;28;20292;-74
2022/03/17 07:09:28;;;;;;;22.23;4.80;;;3.20;99.90;;;;;;5048919;28;20064;-72
2022/03/17 07:11:54;;;;;;;22.13;4.85;;;3.30;99.90;;;;;;5044043;28;20028;-71
2022/03/17 07:14:20;;;;;;;17.92;5.10;;;3.40;99.90;;;;;;5045276;28;20216;-73
2022/03/17 07:16:45;;;;;;;13.60;4.63;;;3.50;99.90;;;;;;5044978;28;20017;-74
2022/03/17 07:19:11;;;;;;;16.42;5.03;;;3.50;99.90;;;;;;5062122;28;20088;-73
2022/03/17 07:21:36;;;;;;;8.57;3.90;;;3.60;99.90;;;;;;5046096;28;20028;-74
2022/03/17 07:24:04;;;;;;;18.00;4.55;;;3.60;99.90;;;;;;5045229;28;20029;-72
2022/03/17 07:26:30;;;;;;;12.68;4.68;;;3.80;99.90;;;;;;5060406;28;20032;-74
2022/03/17 07:28:56;;;;;;;20.50;4.85;;;3.80;99.90;;;;;;5045181;28;20029;-74
2022/03/17 07:31:24;;;;;;;23.48;5.18;;;3.90;99.90;;;;;;5061563;28;20105;-71
2022/03/17 07:33:50;;;;;;;21.90;5.78;;;4.00;99.90;;;;;;5061373;28;20033;-75
2022/03/17 07:36:16;;;;;;;19.00;5.72;;;4.10;99.90;;;;;;5061851;28;20021;-73
2022/03/17 07:38:42;;;;;;;17.05;5.22;;;4.20;99.90;;;;;;5078890;28;20025;-74
2022/03/17 07:41:08;;;;;;;19.70;5.25;;;4.20;99.90;;;;;;5065882;28;20039;-74
2022/03/17 07:43:33;;;;;;;17.05;5.10;;;4.30;99.90;;;;;;5064640;28;20359;-75
2022/03/17 07:45:59;;;;;;;31.60;6.78;;;4.40;99.90;;;;;;5065121;28;20021;-75
2022/03/17 07:48:24;;;;;;;16.85;5.32;;;4.50;99.90;;;;;;5065766;28;20052;-77
2022/03/17 07:50:50;;;;;;;25.27;6.15;;;4.60;99.90;;;;;;5065316;28;20220;-72
2022/03/17 07:53:17;;;;;;;24.25;6.82;;;4.70;99.90;;;;;;5047677;28;20299;-73
2022/03/17 07:55:43;;;;;;;22.88;5.88;;;4.80;99.90;;;;;;5064098;28;20041;-75
2022/03/17 07:58:10;;;;;;;25.92;6.50;;;5.00;99.90;;;;;;5031279;28;20303;-73
2022/03/17 08:00:37;;;;;;;22.23;5.80;;;5.20;99.90;;;;;;5064357;28;20307;-73
2022/03/17 08:03:04;;;;;;;22.45;6.25;;;5.40;99.90;;;;;;5063950;28;20048;-76
2022/03/17 08:05:30;;;;;;;20.75;6.38;;;5.60;99.90;;;;;;5048156;28;20024;-76
2022/03/17 08:07:56;;;;;;;20.83;6.82;;;5.80;99.90;;;;;;5064866;28;20025;-75
2022/03/17 08:10:22;;;;;;;15.63;3.20;;;5.90;99.90;;;;;;5059803;28;20139;-73
2022/03/17 08:12:48;;;;;;;22.83;4.00;;;6.20;99.90;;;;;;5060479;28;20220;-73
2022/03/17 08:15:14;;;;;;;15.02;2.60;;;6.50;99.90;;;;;;5047561;28;20259;-75
2022/03/17 08:17:40;;;;;;;22.55;4.30;;;6.70;99.90;;;;;;5058134;28;20021;-76
2022/03/17 08:20:06;;;;;;;19.42;3.53;;;6.90;99.90;;;;;;5054472;28;20044;-75
2022/03/17 08:22:34;;;;;;;16.55;2.42;;;7.10;99.90;;;;;;5045628;28;20025;-76
2022/03/17 08:25:00;;;;;;;11.77;2.10;;;7.20;99.90;;;;;;5058518;28;20096;-74
2022/03/17 08:27:25;;;;;;;13.98;2.05;;;7.40;99.90;;;;;;5056132;28;20017;-76
2022/03/17 08:29:51;;;;;;;20.65;2.33;;;7.50;99.90;;;;;;5056527;28;20020;-77
2022/03/17 08:32:17;;;;;;;10.98;2.13;;;7.60;99.90;;;;;;5062447;28;20067;-75
2022/03/17 08:34:43;;;;;;;10.70;1.77;;;7.70;99.90;;;;;;5063666;28;20335;-75
2022/03/17 08:37:09;;;;;;;11.43;2.28;;;7.80;99.90;;;;;;5058287;28;20079;-78
2022/03/17 08:39:35;;;;;;;13.23;1.80;;;7.90;99.90;;;;;;5043913;28;20312;-81
2022/03/17 08:42:01;;;;;;;13.02;2.00;;;8.00;99.90;;;;;;5075747;28;20024;-76
2022/03/17 08:44:27;;;;;;;15.50;2.03;;;8.10;99.90;;;;;;5028831;28;20025;-77
2022/03/17 08:49:38;;;;;;;16.27;1.98;;;8.30;99.90;;;;;;5057798;28;20052;-79
2022/03/17 08:52:04;;;;;;;13.40;1.95;;;8.40;99.90;;;;;;5029470;28;20099;-74
2022/03/17 08:54:34;;;;;;;13.60;1.85;;;8.50;99.90;;;;;;5059834;28;20049;-78
2022/03/17 08:57:00;;;;;;;11.10;1.52;;;8.60;99.90;;;;;;5044555;28;20029;-78
2022/03/17 08:59:36;;;;;;;9.35;1.60;;;8.60;99.90;;;;;;5045500;28;20085;-74
2022/03/17 09:02:06;;;;;;;10.23;1.45;;;8.70;99.90;;;;;;5079704;28;20084;-77
2022/03/17 09:04:32;;;;;;;10.10;1.52;;;8.80;99.90;;;;;;5078697;28;20118;-77
2022/03/17 09:07:00;;;;;;;6.72;1.17;;;8.80;99.90;;;;;;5064408;28;20031;-74
2022/03/17 09:09:35;;;;;;;14.68;1.42;;;8.90;99.90;;;;;;5063870;28;20304;-75
2022/03/17 09:12:05;;;;;;;15.15;1.60;;;9.00;99.90;;;;;;5057984;28;20040;-77
2022/03/17 09:14:33;;;;;;;10.70;1.35;;;9.10;99.90;;;;;;5059428;28;20053;-75
2022/03/17 09:17:00;;;;;;;11.15;2.28;;;9.10;99.90;;;;;;5049582;28;20060;-75
2022/03/17 09:19:26;;;;;;;17.35;1.80;;;9.20;99.90;;;;;;5063922;28;20013;-76
2022/03/17 09:21:51;;;;;;;14.77;1.67;;;9.20;99.90;;;;;;5046655;28;20100;-75
2022/03/17 09:24:17;;;;;;;15.05;1.52;;;9.20;99.90;;;;;;5064740;28;20075;-78
2022/03/17 09:26:43;;;;;;;9.75;1.92;;;9.30;99.90;;;;;;5044613;28;20098;-76
2022/03/17 09:29:09;;;;;;;12.25;1.27;;;9.40;99.90;;;;;;5056315;28;20296;-77
2022/03/17 09:31:35;;;;;;;10.75;1.35;;;9.50;99.90;;;;;;5042875;28;20327;-75
2022/03/17 09:34:01;;;;;;;12.98;1.38;;;9.60;99.90;;;;;;5058836;28;20037;-73
2022/03/17 09:36:27;;;;;;;6.85;1.10;;;9.60;99.90;;;;;;5044199;28;20316;-75
2022/03/17 09:41:38;;;;;;;11.63;1.52;;;9.70;99.90;;;;;;5029332;28;20045;-79
2022/03/17 09:44:04;;;;;;;10.93;1.27;;;9.80;99.90;;;;;;5042776;28;20220;-78
2022/03/17 09:46:31;;;;;;;11.57;1.48;;;9.90;99.90;;;;;;5042630;28;20296;-79
2022/03/17 09:48:58;;;;;;;12.30;1.05;;;9.90;99.90;;;;;;5026080;28;20346;-78
2022/03/17 09:51:26;;;;;;;8.00;1.27;;;10.00;99.90;;;;;;5049019;28;20014;-77
2022/03/17 09:53:53;;;;;;;17.88;1.92;;;10.10;99.90;;;;;;5058830;28;20029;-77
2022/03/17 09:56:23;;;;;;;10.77;1.17;;;10.10;99.90;;;;;;5061682;28;20090;-79
2022/03/17 09:58:50;;;;;;;7.90;0.85;;;10.10;99.90;;;;;;5059852;28;20030;-78
2022/03/17 10:01:16;;;;;;;14.07;1.65;;;10.10;99.90;;;;;;5062505;28;20224;-76
2022/03/17 10:03:43;;;;;;;9.00;1.48;;;10.20;99.90;;;;;;5045586;28;20025;-77
2022/03/17 10:06:10;;;;;;;16.33;1.33;;;10.20;99.90;;;;;;5045757;28;20048;-77
2022/03/17 10:08:38;;;;;;;15.70;1.77;;;10.30;99.90;;;;;;5047740;28;20029;-82
2022/03/17 10:11:04;;;;;;;8.60;1.20;;;10.20;99.90;;;;;;5058850;28;20021;-78
2022/03/17 10:13:31;;;;;;;11.95;1.17;;;10.30;99.90;;;;;;5058332;28;20037;-79
2022/03/17 10:16:17;;;;;;;3.55;0.73;;;10.30;99.90;;;;;;5026030;28;20037;-79
2022/03/17 10:18:43;;;;;;;9.65;1.27;;;10.40;99.90;;;;;;5026209;28;20025;-78
2022/03/17 10:21:13;;;;;;;5.93;1.48;;;10.40;99.90;;;;;;5025776;28;20053;-77
2022/03/17 10:23:52;;;;;;;14.10;1.50;;;10.50;99.90;;;;;;5057899;28;20331;-79
2022/03/17 10:26:44;;;;;;;7.35;1.17;;;10.60;99.90;;;;;;5058757;28;20025;-79
2022/03/17 10:29:19;;;;;;;12.48;1.30;;;10.70;99.90;;;;;;5054010;28;20021;-77
2022/03/17 10:32:05;;;;;;;7.72;1.80;;;10.80;99.90;;;;;;5024975;28;20021;-79
2022/03/17 10:34:35;;;;;;;6.18;0.82;;;10.90;99.90;;;;;;5042054;28;20043;-77
2022/03/17 10:37:07;;;;;;;6.75;1.05;;;10.90;99.90;;;;;;5043483;28;20185;-77
2022/03/17 10:39:48;;;;;;;12.13;1.67;;;11.00;99.90;;;;;;5062228;28;20035;-75
2022/03/17 10:42:17;;;;;;;6.33;0.87;;;11.00;99.90;;;;;;5061290;28;20047;-78
2022/03/17 10:44:52;;;;;;;3.83;0.68;;;11.00;99.90;;;;;;5045386;28;20044;-77
2022/03/17 10:47:31;;;;;;;11.77;0.85;;;11.10;99.90;;;;;;5045296;28;20017;-82
2022/03/17 10:50:12;;;;;;;11.98;1.00;;;11.10;99.90;;;;;;5062070;28;20053;-78
2022/03/17 10:52:47;;;;;;;6.80;0.90;;;11.10;99.90;;;;;;5041400;28;20321;-78
2022/03/17 10:55:15;;;;;;;16.85;1.08;;;11.20;99.90;;;;;;5027039;28;20042;-79
2022/03/17 10:57:41;;;;;;;18.58;1.70;;;11.20;99.90;;;;;;5041647;28;20026;-78
2022/03/17 11:00:19;;;;;;;7.40;1.17;;;11.30;99.90;;;;;;5059361;28;20025;-78
2022/03/17 11:02:46;;;;;;;10.45;1.20;;;11.50;99.00;;;;;;5078078;28;20101;-79
2022/03/17 11:05:12;;;;;;;5.03;0.75;;;11.50;98.60;;;;;;5062231;28;20040;-77
2022/03/17 11:07:38;;;;;;;5.90;0.98;;;11.50;99.30;;;;;;5061379;28;20365;-82
2022/03/17 11:10:07;;;;;;;6.57;0.95;;;11.70;98.40;;;;;;5051981;28;20040;-81
2022/03/17 11:12:34;;;;;;;5.18;0.98;;;11.80;97.90;;;;;;5061369;28;20322;-79
2022/03/17 11:15:01;;;;;;;9.13;0.88;;;11.90;97.10;;;;;;5044682;28;20043;-79
2022/03/17 11:17:46;;;;;;;6.25;1.00;;;12.10;97.30;;;;;;5061788;28;20021;-77
2022/03/17 11:20:16;;;;;;;3.58;0.75;;;12.10;96.90;;;;;;5077919;28;20043;-79
2022/03/17 11:22:50;;;;;;;5.85;0.70;;;12.20;96.80;;;;;;5077707;28;20059;-77
2022/03/17 11:25:28;;;;;;;6.32;0.70;;;12.20;96.40;;;;;;5077465;28;20024;-78
2022/03/17 11:27:58;;;;;;;7.85;0.90;;;12.10;96.50;;;;;;5065033;28;20020;-82
2022/03/17 11:30:31;;;;;;;2.58;0.60;;;11.90;95.60;;;;;;5080346;28;20025;-78
2022/03/17 11:32:58;;;;;;;9.50;0.90;;;11.80;95.40;;;;;;5064752;28;20033;-80
2022/03/17 11:35:29;;;;;;;8.25;1.08;;;11.80;95.90;;;;;;5065948;28;20336;-76
2022/03/17 11:38:15;;;;;;;14.80;1.90;;;11.80;95.60;;;;;;5065555;28;20090;-84
2022/03/17 11:41:03;;;;;;;10.73;2.15;;;11.80;96.70;;;;;;5064917;28;20286;-81
2022/03/17 11:43:58;;;;;;;5.25;0.90;;;12.00;95.40;;;;;;5068209;28;20017;-82
2022/03/17 11:46:34;;;;;;;9.80;1.17;;;12.00;94.90;;;;;;5066988;28;20029;-76
2022/03/17 11:49:21;;;;;;;6.03;1.00;;;12.00;94.60;;;;;;5064366;28;20056;-78
2022/03/17 11:52:05;;;;;;;3.55;0.80;;;12.20;94.60;;;;;;5065868;28;20021;-80
2022/03/17 11:54:31;;;;;;;3.50;0.50;;;12.20;94.30;;;;;;5081146;28;20362;-75
2022/03/17 11:57:00;;;;;;;4.75;0.60;;;12.30;94.10;;;;;;5064329;28;20056;-79
2022/03/17 11:59:30;;;;;;;8.60;0.68;;;12.30;94.40;;;;;;5065288;28;20036;-81
2022/03/17 12:01:56;;;;;;;8.25;1.27;;;12.30;94.40;;;;;;5080750;28;20020;-80
2022/03/17 12:04:30;;;;;;;7.45;0.70;;;12.40;94.40;;;;;;5063659;28;20353;-80
2022/03/17 12:07:13;;;;;;;5.13;0.80;;;12.50;93.50;;;;;;5064304;28;20036;-77
2022/03/17 12:09:40;;;;;;;11.60;0.80;;;12.50;92.50;;;;;;5047859;28;20036;-74
2022/03/17 12:12:26;;;;;;;2.92;0.77;;;12.30;93.00;;;;;;5063663;28;20043;-81
2022/03/17 12:14:55;;;;;;;3.97;0.60;;;12.10;93.50;;;;;;5067475;28;20048;-80
2022/03/17 12:17:23;;;;;;;4.35;0.60;;;12.20;93.90;;;;;;5047959;28;20334;-78
2022/03/17 12:20:05;;;;;;;2.30;0.70;;;12.30;93.20;;;;;;5064579;28;20029;-77
2022/03/17 12:22:39;;;;;;;6.65;0.70;;;12.40;92.60;;;;;;5047823;28;20334;-78
2022/03/17 12:25:22;;;;;;;5.07;0.57;;;12.40;92.80;;;;;;5056498;28;20219;-78
2022/03/17 12:27:53;;;;;;;1.50;0.50;;;12.40;93.20;;;;;;5084039;28;20028;-77
2022/03/17 12:30:20;;;;;;;5.63;0.73;;;12.50;93.50;;;;;;5082940;28;20029;-80
2022/03/17 12:32:52;;;;;;;6.28;0.85;;;12.50;92.70;;;;;;5083715;28;20024;-79
2022/03/17 12:35:20;;;;;;;5.20;0.57;;;12.50;93.00;;;;;;5067847;28;20145;-78
2022/03/17 12:37:46;;;;;;;3.53;0.60;;;12.40;92.90;;;;;;5067182;28;20021;-78
2022/03/17 12:40:17;;;;;;;6.65;0.70;;;12.50;93.30;;;;;;5084592;28;20036;-76
2022/03/17 12:42:46;;;;;;;4.57;0.80;;;12.40;93.20;;;;;;5083973;28;20029;-79
2022/03/17 12:45:15;;;;;;;5.07;0.77;;;12.40;93.90;;;;;;5050543;28;20028;-77
2022/03/17 12:47:43;;;;;;;6.78;0.60;;;12.60;94.70;;;;;;5083560;28;20065;-76
2022/03/17 12:50:11;;;;;;;4.32;0.65;;;12.70;94.50;;;;;;5084259;28;20071;-78
2022/03/17 12:52:40;;;;;;;6.88;1.00;;;12.70;94.30;;;;;;5082477;28;20098;-79
2022/03/17 12:55:09;;;;;;;9.82;1.70;;;12.80;94.20;;;;;;5083583;28;20254;-78
2022/03/17 12:57:37;;;;;;;6.55;1.20;;;12.80;94.80;;;;;;5083422;28;20028;-78
2022/03/17 13:00:05;;;;;;;6.47;1.23;;;12.90;94.50;;;;;;5067005;28;20028;-78
2022/03/17 13:02:31;;;;;;;4.15;0.70;;;12.80;94.60;;;;;;5066808;28;20073;-80
2022/03/17 13:04:59;;;;;;;9.02;0.70;;;12.70;93.60;;;;;;5083144;28;20342;-78
2022/03/17 13:07:27;;;;;;;3.25;0.73;;;12.70;93.70;;;;;;5066470;28;20020;-78